sensor_id;sensor_type;location;lat;lon;timestamp;P1;durP1;ratioP1;P2;durP2;ratioP2
12275;SDS011;6200;48.144;11.424;2023-12-28T00:01:49;0.57;;;0.57;;
12275;SDS011;6200;48.144;11.424;2023-12-28T00:04:15;0.40;;;0.40;;
12275;SDS011;6200;48.144;11.424;2023-12-28T00:06:41;0.50;;;0.50;;
12275;SDS011;6200;48.144;11.424;2023-12-28T00:09:07;0.50;;;0.50;;
12275;SDS011;6200;48.144;11.424;2023-12-28T00:11:33;0.60;;;0.60;;
12275;SDS011;6200;48.144;11.424;2023-12-28T00:13:59;0.40;;;0.40;;
12275;SDS011;6200;48.144;11.424;2023-12-28T00:16:24;0.50;;;0.50;;
12275;SDS011;6200;48.144;11.424;2023-12-28T00:18:50;0.40;;;0.40;;
12275;SDS011;6200;48.144;11.424;2023-12-28T00:21:15;0.50;;;0.50;;
12275;SDS011;6200;48.144;11.424;2023-12-28T00:23:41;0.60;;;0.60;;
12275;SDS011;6200;48.144;11.424;2023-12-28T00:26:06;0.60;;;0.60;;
12275;SDS011;6200;48.144;11.424;2023-12-28T00:28:32;0.40;;;0.40;;
12275;SDS011;6200;48.144;11.424;2023-12-28T00:30:58;0.57;;;0.57;;
12275;SDS011;6200;48.144;11.424;2023-12-28T00:33:23;0.50;;;0.50;;
12275;SDS011;6200;48.144;11.424;2023-12-28T00:35:49;0.40;;;0.40;;
12275;SDS011;6200;48.144;11.424;2023-12-28T00:38:14;0.50;;;0.50;;
12275;SDS011;6200;48.144;11.424;2023-12-28T00:40:40;0.57;;;0.57;;
12275;SDS011;6200;48.144;11.424;2023-12-28T00:43:05;0.50;;;0.50;;
12275;SDS011;6200;48.144;11.424;2023-12-28T00:45:32;0.40;;;0.40;;
12275;SDS011;6200;48.144;11.424;2023-12-28T00:47:57;0.60;;;0.60;;
12275;SDS011;6200;48.144;11.424;2023-12-28T00:50:23;0.50;;;0.50;;
12275;SDS011;6200;48.144;11.424;2023-12-28T00:52:48;0.43;;;0.43;;
12275;SDS011;6200;48.144;11.424;2023-12-28T00:55:14;0.60;;;0.60;;
12275;SDS011;6200;48.144;11.424;2023-12-28T00:57:39;0.40;;;0.40;;
12275;SDS011;6200;48.144;11.424;2023-12-28T01:00:05;0.53;;;0.53;;
12275;SDS011;6200;48.144;11.424;2023-12-28T01:02:31;0.50;;;0.50;;
12275;SDS011;6200;48.144;11.424;2023-12-28T01:04:56;0.40;;;0.40;;
12275;SDS011;6200;48.144;11.424;2023-12-28T01:07:22;0.50;;;0.50;;
12275;SDS011;6200;48.144;11.424;2023-12-28T01:09:47;0.50;;;0.50;;
12275;SDS011;6200;48.144;11.424;2023-12-28T01:12:13;0.50;;;0.50;;
12275;SDS011;6200;48.144;11.424;2023-12-28T01:14:38;0.50;;;0.50;;
12275;SDS011;6200;48.144;11.424;2023-12-28T01:17:04;0.50;;;0.50;;
12275;SDS011;6200;48.144;11.424;2023-12-28T01:19:29;0.50;;;0.50;;
12275;SDS011;6200;48.144;11.424;2023-12-28T01:21:55;0.50;;;0.50;;
12275;SDS011;6200;48.144;11.424;2023-12-28T01:24:21;0.47;;;0.47;;
12275;SDS011;6200;48.144;11.424;2023-12-28T01:26:46;0.60;;;0.60;;
12275;SDS011;6200;48.144;11.424;2023-12-28T01:29:12;0.50;;;0.50;;
12275;SDS011;6200;48.144;11.424;2023-12-28T01:31:37;0.50;;;0.50;;
12275;SDS011;6200;48.144;11.424;2023-12-28T01:34:04;0.40;;;0.40;;
12275;SDS011;6200;48.144;11.424;2023-12-28T01:36:29;0.50;;;0.50;;
12275;SDS011;6200;48.144;11.424;2023-12-28T01:38:55;0.50;;;0.50;;
12275;SDS011;6200;48.144;11.424;2023-12-28T01:41:21;0.50;;;0.50;;
12275;SDS011;6200;48.144;11.424;2023-12-28T01:43:46;0.50;;;0.50;;
12275;SDS011;6200;48.144;11.424;2023-12-28T01:46:15;0.50;;;0.50;;
12275;SDS011;6200;48.144;11.424;2023-12-28T01:48:44;0.50;;;0.50;;
12275;SDS011;6200;48.144;11.424;2023-12-28T01:51:12;0.50;;;0.50;;
12275;SDS011;6200;48.144;11.424;2023-12-28T01:53:39;0.40;;;0.40;;
12275;SDS011;6200;48.144;11.424;2023-12-28T01:56:04;0.50;;;0.50;;
12275;SDS011;6200;48.144;11.424;2023-12-28T01:58:32;0.50;;;0.50;;
12275;SDS011;6200;48.144;11.424;2023-12-28T02:01:00;0.47;;;0.47;;
12275;SDS011;6200;48.144;11.424;2023-12-28T02:03:26;0.30;;;0.30;;
12275;SDS011;6200;48.144;11.424;2023-12-28T02:05:52;0.40;;;0.40;;
12275;SDS011;6200;48.144;11.424;2023-12-28T02:08:19;0.50;;;0.50;;
12275;SDS011;6200;48.144;11.424;2023-12-28T02:10:44;0.53;;;0.53;;
12275;SDS011;6200;48.144;11.424;2023-12-28T02:13:10;0.50;;;0.50;;
12275;SDS011;6200;48.144;11.424;2023-12-28T02:15:35;0.40;;;0.40;;
12275;SDS011;6200;48.144;11.424;2023-12-28T02:18:11;0.47;;;0.47;;
12275;SDS011;6200;48.144;11.424;2023-12-28T02:20:40;0.50;;;0.50;;
12275;SDS011;6200;48.144;11.424;2023-12-28T02:23:07;0.60;;;0.60;;
12275;SDS011;6200;48.144;11.424;2023-12-28T02:25:34;0.50;;;0.50;;
12275;SDS011;6200;48.144;11.424;2023-12-28T02:27:59;0.50;;;0.50;;
12275;SDS011;6200;48.144;11.424;2023-12-28T02:30:25;0.70;;;0.70;;
12275;SDS011;6200;48.144;11.424;2023-12-28T02:35:42;0.50;;;0.50;;
12275;SDS011;6200;48.144;11.424;2023-12-28T02:38:11;0.50;;;0.50;;
12275;SDS011;6200;48.144;11.424;2023-12-28T02:40:38;0.50;;;0.50;;
12275;SDS011;6200;48.144;11.424;2023-12-28T02:43:08;0.50;;;0.50;;
12275;SDS011;6200;48.144;11.424;2023-12-28T02:45:34;0.50;;;0.50;;
12275;SDS011;6200;48.144;11.424;2023-12-28T02:48:01;0.53;;;0.53;;
12275;SDS011;6200;48.144;11.424;2023-12-28T02:50:26;0.60;;;0.60;;
12275;SDS011;6200;48.144;11.424;2023-12-28T02:52:52;0.40;;;0.40;;
12275;SDS011;6200;48.144;11.424;2023-12-28T02:55:17;0.50;;;0.50;;
12275;SDS011;6200;48.144;11.424;2023-12-28T02:57:43;0.60;;;0.60;;
12275;SDS011;6200;48.144;11.424;2023-12-28T03:00:09;0.60;;;0.60;;
12275;SDS011;6200;48.144;11.424;2023-12-28T03:02:36;0.50;;;0.50;;
12275;SDS011;6200;48.144;11.424;2023-12-28T03:05:02;0.50;;;0.50;;
12275;SDS011;6200;48.144;11.424;2023-12-28T03:07:31;0.50;;;0.50;;
12275;SDS011;6200;48.144;11.424;2023-12-28T03:09:57;0.33;;;0.33;;
12275;SDS011;6200;48.144;11.424;2023-12-28T03:12:22;0.63;;;0.63;;
12275;SDS011;6200;48.144;11.424;2023-12-28T03:14:48;0.40;;;0.40;;
12275;SDS011;6200;48.144;11.424;2023-12-28T03:17:14;0.50;;;0.50;;
12275;SDS011;6200;48.144;11.424;2023-12-28T03:19:39;0.60;;;0.60;;
12275;SDS011;6200;48.144;11.424;2023-12-28T03:22:05;0.50;;;0.50;;
12275;SDS011;6200;48.144;11.424;2023-12-28T03:24:31;0.50;;;0.50;;
12275;SDS011;6200;48.144;11.424;2023-12-28T03:26:56;0.50;;;0.50;;
12275;SDS011;6200;48.144;11.424;2023-12-28T03:29:22;0.60;;;0.60;;
12275;SDS011;6200;48.144;11.424;2023-12-28T03:31:47;0.60;;;0.60;;
12275;SDS011;6200;48.144;11.424;2023-12-28T03:34:13;0.50;;;0.50;;
12275;SDS011;6200;48.144;11.424;2023-12-28T03:36:38;0.60;;;0.60;;
12275;SDS011;6200;48.144;11.424;2023-12-28T03:39:04;0.50;;;0.50;;
12275;SDS011;6200;48.144;11.424;2023-12-28T03:41:30;0.40;;;0.40;;
12275;SDS011;6200;48.144;11.424;2023-12-28T03:43:56;0.50;;;0.50;;
12275;SDS011;6200;48.144;11.424;2023-12-28T03:46:21;0.63;;;0.63;;
12275;SDS011;6200;48.144;11.424;2023-12-28T03:48:47;0.40;;;0.40;;
12275;SDS011;6200;48.144;11.424;2023-12-28T03:51:14;0.57;;;0.57;;
12275;SDS011;6200;48.144;11.424;2023-12-28T03:53:40;0.50;;;0.50;;
12275;SDS011;6200;48.144;11.424;2023-12-28T03:56:06;0.40;;;0.40;;
12275;SDS011;6200;48.144;11.424;2023-12-28T03:58:32;0.50;;;0.50;;
12275;SDS011;6200;48.144;11.424;2023-12-28T04:00:57;0.40;;;0.40;;
12275;SDS011;6200;48.144;11.424;2023-12-28T04:03:23;0.50;;;0.50;;
12275;SDS011;6200;48.144;11.424;2023-12-28T04:05:49;0.40;;;0.40;;
12275;SDS011;6200;48.144;11.424;2023-12-28T04:08:15;0.50;;;0.50;;
12275;SDS011;6200;48.144;11.424;2023-12-28T04:10:41;0.50;;;0.50;;
12275;SDS011;6200;48.144;11.424;2023-12-28T04:13:06;0.50;;;0.50;;
12275;SDS011;6200;48.144;11.424;2023-12-28T04:15:32;0.50;;;0.50;;
12275;SDS011;6200;48.144;11.424;2023-12-28T04:17:57;0.40;;;0.40;;
12275;SDS011;6200;48.144;11.424;2023-12-28T04:20:23;0.43;;;0.43;;
12275;SDS011;6200;48.144;11.424;2023-12-28T04:22:48;0.43;;;0.43;;
12275;SDS011;6200;48.144;11.424;2023-12-28T04:25:14;0.47;;;0.47;;
12275;SDS011;6200;48.144;11.424;2023-12-28T04:27:41;0.50;;;0.50;;
12275;SDS011;6200;48.144;11.424;2023-12-28T04:30:07;0.50;;;0.50;;
12275;SDS011;6200;48.144;11.424;2023-12-28T04:32:36;0.40;;;0.40;;
12275;SDS011;6200;48.144;11.424;2023-12-28T04:35:01;0.50;;;0.50;;
12275;SDS011;6200;48.144;11.424;2023-12-28T04:37:28;0.50;;;0.50;;
12275;SDS011;6200;48.144;11.424;2023-12-28T04:39:55;0.43;;;0.43;;
12275;SDS011;6200;48.144;11.424;2023-12-28T04:42:21;0.40;;;0.40;;
12275;SDS011;6200;48.144;11.424;2023-12-28T04:44:47;0.50;;;0.50;;
12275;SDS011;6200;48.144;11.424;2023-12-28T04:47:12;0.57;;;0.57;;
12275;SDS011;6200;48.144;11.424;2023-12-28T04:49:38;0.50;;;0.50;;
12275;SDS011;6200;48.144;11.424;2023-12-28T04:52:03;0.60;;;0.60;;
12275;SDS011;6200;48.144;11.424;2023-12-28T04:54:29;0.60;;;0.60;;
12275;SDS011;6200;48.144;11.424;2023-12-28T04:56:55;0.40;;;0.40;;
12275;SDS011;6200;48.144;11.424;2023-12-28T04:59:20;0.60;;;0.60;;
12275;SDS011;6200;48.144;11.424;2023-12-28T05:01:46;0.50;;;0.50;;
12275;SDS011;6200;48.144;11.424;2023-12-28T05:04:11;0.50;;;0.50;;
12275;SDS011;6200;48.144;11.424;2023-12-28T05:06:37;0.70;;;0.70;;
12275;SDS011;6200;48.144;11.424;2023-12-28T05:09:03;0.60;;;0.60;;
12275;SDS011;6200;48.144;11.424;2023-12-28T05:11:29;0.50;;;0.50;;
12275;SDS011;6200;48.144;11.424;2023-12-28T05:13:55;0.60;;;0.60;;
12275;SDS011;6200;48.144;11.424;2023-12-28T05:16:21;0.43;;;0.43;;
12275;SDS011;6200;48.144;11.424;2023-12-28T05:18:47;0.50;;;0.50;;
12275;SDS011;6200;48.144;11.424;2023-12-28T05:21:12;0.50;;;0.50;;
12275;SDS011;6200;48.144;11.424;2023-12-28T05:23:38;0.60;;;0.60;;
12275;SDS011;6200;48.144;11.424;2023-12-28T05:26:04;0.40;;;0.40;;
12275;SDS011;6200;48.144;11.424;2023-12-28T05:28:30;0.50;;;0.50;;
12275;SDS011;6200;48.144;11.424;2023-12-28T05:30:55;0.60;;;0.60;;
12275;SDS011;6200;48.144;11.424;2023-12-28T05:33:21;0.50;;;0.50;;
12275;SDS011;6200;48.144;11.424;2023-12-28T05:35:47;0.40;;;0.40;;
12275;SDS011;6200;48.144;11.424;2023-12-28T05:38:13;0.40;;;0.40;;
12275;SDS011;6200;48.144;11.424;2023-12-28T05:40:38;0.47;;;0.47;;
12275;SDS011;6200;48.144;11.424;2023-12-28T05:43:04;0.50;;;0.50;;
12275;SDS011;6200;48.144;11.424;2023-12-28T05:45:30;0.50;;;0.50;;
12275;SDS011;6200;48.144;11.424;2023-12-28T05:47:56;0.60;;;0.60;;
12275;SDS011;6200;48.144;11.424;2023-12-28T05:50:21;0.50;;;0.50;;
12275;SDS011;6200;48.144;11.424;2023-12-28T05:52:47;0.60;;;0.60;;
12275;SDS011;6200;48.144;11.424;2023-12-28T05:55:12;0.50;;;0.50;;
12275;SDS011;6200;48.144;11.424;2023-12-28T05:57:38;0.60;;;0.60;;
12275;SDS011;6200;48.144;11.424;2023-12-28T06:00:04;0.60;;;0.60;;
12275;SDS011;6200;48.144;11.424;2023-12-28T06:02:31;0.40;;;0.40;;
12275;SDS011;6200;48.144;11.424;2023-12-28T06:04:56;0.60;;;0.60;;
12275;SDS011;6200;48.144;11.424;2023-12-28T06:07:22;0.60;;;0.60;;
12275;SDS011;6200;48.144;11.424;2023-12-28T06:09:47;0.53;;;0.53;;
12275;SDS011;6200;48.144;11.424;2023-12-28T06:12:13;0.50;;;0.50;;
12275;SDS011;6200;48.144;11.424;2023-12-28T06:14:39;0.47;;;0.47;;
12275;SDS011;6200;48.144;11.424;2023-12-28T06:17:05;0.47;;;0.47;;
12275;SDS011;6200;48.144;11.424;2023-12-28T06:19:30;0.50;;;0.50;;
12275;SDS011;6200;48.144;11.424;2023-12-28T06:21:56;0.50;;;0.50;;
12275;SDS011;6200;48.144;11.424;2023-12-28T06:24:23;0.60;;;0.60;;
12275;SDS011;6200;48.144;11.424;2023-12-28T06:26:49;0.40;;;0.40;;
12275;SDS011;6200;48.144;11.424;2023-12-28T06:29:14;0.60;;;0.60;;
12275;SDS011;6200;48.144;11.424;2023-12-28T06:31:40;0.60;;;0.60;;
12275;SDS011;6200;48.144;11.424;2023-12-28T06:34:06;0.57;;;0.57;;
12275;SDS011;6200;48.144;11.424;2023-12-28T06:36:31;0.60;;;0.60;;
12275;SDS011;6200;48.144;11.424;2023-12-28T06:38:58;0.60;;;0.60;;
12275;SDS011;6200;48.144;11.424;2023-12-28T06:41:24;0.60;;;0.60;;
12275;SDS011;6200;48.144;11.424;2023-12-28T06:43:50;0.50;;;0.50;;
12275;SDS011;6200;48.144;11.424;2023-12-28T06:46:16;0.60;;;0.60;;
12275;SDS011;6200;48.144;11.424;2023-12-28T06:48:42;0.57;;;0.57;;
12275;SDS011;6200;48.144;11.424;2023-12-28T06:51:08;0.50;;;0.50;;
12275;SDS011;6200;48.144;11.424;2023-12-28T06:53:43;0.50;;;0.50;;
12275;SDS011;6200;48.144;11.424;2023-12-28T06:56:09;0.57;;;0.57;;
12275;SDS011;6200;48.144;11.424;2023-12-28T06:58:35;0.40;;;0.40;;
12275;SDS011;6200;48.144;11.424;2023-12-28T07:01:02;0.50;;;0.50;;
12275;SDS011;6200;48.144;11.424;2023-12-28T07:03:28;0.57;;;0.57;;
12275;SDS011;6200;48.144;11.424;2023-12-28T07:05:57;0.40;;;0.40;;
12275;SDS011;6200;48.144;11.424;2023-12-28T07:08:26;0.60;;;0.60;;
12275;SDS011;6200;48.144;11.424;2023-12-28T07:10:52;0.50;;;0.50;;
12275;SDS011;6200;48.144;11.424;2023-12-28T07:13:17;0.57;;;0.57;;
12275;SDS011;6200;48.144;11.424;2023-12-28T07:15:43;0.50;;;0.50;;
12275;SDS011;6200;48.144;11.424;2023-12-28T07:18:08;0.50;;;0.50;;
12275;SDS011;6200;48.144;11.424;2023-12-28T07:20:34;0.50;;;0.50;;
12275;SDS011;6200;48.144;11.424;2023-12-28T07:22:59;0.47;;;0.47;;
12275;SDS011;6200;48.144;11.424;2023-12-28T07:25:25;0.60;;;0.60;;
12275;SDS011;6200;48.144;11.424;2023-12-28T07:27:50;0.67;;;0.67;;
12275;SDS011;6200;48.144;11.424;2023-12-28T07:30:16;0.50;;;0.50;;
12275;SDS011;6200;48.144;11.424;2023-12-28T07:32:42;0.60;;;0.60;;
12275;SDS011;6200;48.144;11.424;2023-12-28T07:35:08;0.60;;;0.60;;
12275;SDS011;6200;48.144;11.424;2023-12-28T07:37:34;0.60;;;0.60;;
12275;SDS011;6200;48.144;11.424;2023-12-28T07:40:00;0.53;;;0.53;;
12275;SDS011;6200;48.144;11.424;2023-12-28T07:42:26;0.47;;;0.47;;
12275;SDS011;6200;48.144;11.424;2023-12-28T07:44:51;0.50;;;0.50;;
12275;SDS011;6200;48.144;11.424;2023-12-28T07:47:17;0.50;;;0.50;;
12275;SDS011;6200;48.144;11.424;2023-12-28T07:49:42;0.40;;;0.40;;
12275;SDS011;6200;48.144;11.424;2023-12-28T07:52:08;0.50;;;0.50;;
12275;SDS011;6200;48.144;11.424;2023-12-28T07:54:33;0.40;;;0.40;;
12275;SDS011;6200;48.144;11.424;2023-12-28T07:56:59;0.43;;;0.43;;
12275;SDS011;6200;48.144;11.424;2023-12-28T07:59:25;0.40;;;0.40;;
12275;SDS011;6200;48.144;11.424;2023-12-28T08:01:50;0.53;;;0.53;;
12275;SDS011;6200;48.144;11.424;2023-12-28T08:04:16;0.40;;;0.40;;
12275;SDS011;6200;48.144;11.424;2023-12-28T08:06:41;0.40;;;0.40;;
12275;SDS011;6200;48.144;11.424;2023-12-28T08:09:07;0.50;;;0.50;;
12275;SDS011;6200;48.144;11.424;2023-12-28T08:11:33;0.50;;;0.50;;
12275;SDS011;6200;48.144;11.424;2023-12-28T08:13:59;0.43;;;0.43;;
12275;SDS011;6200;48.144;11.424;2023-12-28T08:16:25;0.40;;;0.40;;
12275;SDS011;6200;48.144;11.424;2023-12-28T08:18:51;0.43;;;0.43;;
12275;SDS011;6200;48.144;11.424;2023-12-28T08:21:16;0.50;;;0.50;;
12275;SDS011;6200;48.144;11.424;2023-12-28T08:23:42;0.40;;;0.40;;
12275;SDS011;6200;48.144;11.424;2023-12-28T08:26:08;0.40;;;0.40;;
12275;SDS011;6200;48.144;11.424;2023-12-28T08:28:34;0.40;;;0.40;;
12275;SDS011;6200;48.144;11.424;2023-12-28T08:31:00;0.40;;;0.40;;
12275;SDS011;6200;48.144;11.424;2023-12-28T08:33:26;0.30;;;0.30;;
12275;SDS011;6200;48.144;11.424;2023-12-28T08:35:51;0.37;;;0.37;;
12275;SDS011;6200;48.144;11.424;2023-12-28T08:38:17;0.30;;;0.30;;
12275;SDS011;6200;48.144;11.424;2023-12-28T08:40:42;0.40;;;0.40;;
12275;SDS011;6200;48.144;11.424;2023-12-28T08:43:09;0.30;;;0.30;;
12275;SDS011;6200;48.144;11.424;2023-12-28T08:45:35;0.40;;;0.40;;
12275;SDS011;6200;48.144;11.424;2023-12-28T08:48:01;0.30;;;0.30;;
12275;SDS011;6200;48.144;11.424;2023-12-28T08:50:27;0.40;;;0.40;;
12275;SDS011;6200;48.144;11.424;2023-12-28T08:52:52;0.30;;;0.30;;
12275;SDS011;6200;48.144;11.424;2023-12-28T08:55:18;0.30;;;0.30;;
12275;SDS011;6200;48.144;11.424;2023-12-28T08:57:43;0.20;;;0.20;;
12275;SDS011;6200;48.144;11.424;2023-12-28T09:00:09;0.30;;;0.30;;
12275;SDS011;6200;48.144;11.424;2023-12-28T09:02:35;0.30;;;0.30;;
12275;SDS011;6200;48.144;11.424;2023-12-28T09:05:01;0.30;;;0.30;;
12275;SDS011;6200;48.144;11.424;2023-12-28T09:07:27;0.20;;;0.20;;
12275;SDS011;6200;48.144;11.424;2023-12-28T09:09:52;0.30;;;0.30;;
12275;SDS011;6200;48.144;11.424;2023-12-28T09:12:18;0.20;;;0.20;;
12275;SDS011;6200;48.144;11.424;2023-12-28T09:14:43;0.20;;;0.20;;
12275;SDS011;6200;48.144;11.424;2023-12-28T09:17:09;0.20;;;0.20;;
12275;SDS011;6200;48.144;11.424;2023-12-28T09:19:34;0.30;;;0.30;;
12275;SDS011;6200;48.144;11.424;2023-12-28T09:22:00;0.30;;;0.30;;
12275;SDS011;6200;48.144;11.424;2023-12-28T09:24:25;0.20;;;0.20;;
12275;SDS011;6200;48.144;11.424;2023-12-28T09:26:51;0.20;;;0.20;;
12275;SDS011;6200;48.144;11.424;2023-12-28T09:29:16;0.20;;;0.20;;
12275;SDS011;6200;48.144;11.424;2023-12-28T09:31:42;0.20;;;0.20;;
12275;SDS011;6200;48.144;11.424;2023-12-28T09:34:07;0.30;;;0.30;;
12275;SDS011;6200;48.144;11.424;2023-12-28T09:36:33;0.23;;;0.23;;
12275;SDS011;6200;48.144;11.424;2023-12-28T09:38:58;0.20;;;0.20;;
12275;SDS011;6200;48.144;11.424;2023-12-28T09:41:25;0.30;;;0.30;;
12275;SDS011;6200;48.144;11.424;2023-12-28T09:44:05;0.20;;;0.20;;
12275;SDS011;6200;48.144;11.424;2023-12-28T09:46:34;0.20;;;0.20;;
12275;SDS011;6200;48.144;11.424;2023-12-28T09:49:00;0.20;;;0.20;;
12275;SDS011;6200;48.144;11.424;2023-12-28T09:51:27;0.23;;;0.23;;
12275;SDS011;6200;48.144;11.424;2023-12-28T09:53:53;0.20;;;0.20;;
12275;SDS011;6200;48.144;11.424;2023-12-28T09:56:19;0.20;;;0.20;;
12275;SDS011;6200;48.144;11.424;2023-12-28T09:58:45;0.20;;;0.20;;
12275;SDS011;6200;48.144;11.424;2023-12-28T10:01:14;0.20;;;0.20;;
12275;SDS011;6200;48.144;11.424;2023-12-28T10:03:40;0.20;;;0.20;;
12275;SDS011;6200;48.144;11.424;2023-12-28T10:06:06;0.30;;;0.30;;
12275;SDS011;6200;48.144;11.424;2023-12-28T10:08:31;0.30;;;0.30;;
12275;SDS011;6200;48.144;11.424;2023-12-28T10:10:57;0.20;;;0.20;;
12275;SDS011;6200;48.144;11.424;2023-12-28T10:13:24;0.20;;;0.20;;
12275;SDS011;6200;48.144;11.424;2023-12-28T10:15:50;0.20;;;0.20;;
12275;SDS011;6200;48.144;11.424;2023-12-28T10:18:18;0.30;;;0.30;;
12275;SDS011;6200;48.144;11.424;2023-12-28T10:20:48;0.30;;;0.30;;
12275;SDS011;6200;48.144;11.424;2023-12-28T10:23:18;0.20;;;0.20;;
12275;SDS011;6200;48.144;11.424;2023-12-28T10:25:45;0.20;;;0.20;;
12275;SDS011;6200;48.144;11.424;2023-12-28T10:28:11;0.30;;;0.30;;
12275;SDS011;6200;48.144;11.424;2023-12-28T10:30:37;0.20;;;0.20;;
12275;SDS011;6200;48.144;11.424;2023-12-28T10:33:05;0.20;;;0.20;;
12275;SDS011;6200;48.144;11.424;2023-12-28T10:35:31;0.30;;;0.30;;
12275;SDS011;6200;48.144;11.424;2023-12-28T10:37:56;0.30;;;0.30;;
12275;SDS011;6200;48.144;11.424;2023-12-28T10:40:25;0.30;;;0.30;;
12275;SDS011;6200;48.144;11.424;2023-12-28T10:45:19;0.30;;;0.30;;
12275;SDS011;6200;48.144;11.424;2023-12-28T10:48:07;0.20;;;0.20;;
12275;SDS011;6200;48.144;11.424;2023-12-28T10:53:25;0.20;;;0.20;;
12275;SDS011;6200;48.144;11.424;2023-12-28T10:56:33;0.20;;;0.20;;
12275;SDS011;6200;48.144;11.424;2023-12-28T11:02:09;0.20;;;0.20;;
12275;SDS011;6200;48.144;11.424;2023-12-28T11:04:48;0.30;;;0.30;;
12275;SDS011;6200;48.144;11.424;2023-12-28T11:07:15;0.20;;;0.20;;
12275;SDS011;6200;48.144;11.424;2023-12-28T11:09:43;0.20;;;0.20;;
12275;SDS011;6200;48.144;11.424;2023-12-28T11:12:09;0.20;;;0.20;;
12275;SDS011;6200;48.144;11.424;2023-12-28T11:14:40;0.30;;;0.30;;
12275;SDS011;6200;48.144;11.424;2023-12-28T11:17:07;0.23;;;0.23;;
12275;SDS011;6200;48.144;11.424;2023-12-28T11:19:34;0.30;;;0.30;;
12275;SDS011;6200;48.144;11.424;2023-12-28T11:22:01;0.20;;;0.20;;
12275;SDS011;6200;48.144;11.424;2023-12-28T11:24:28;0.20;;;0.20;;
12275;SDS011;6200;48.144;11.424;2023-12-28T11:26:56;0.20;;;0.20;;
12275;SDS011;6200;48.144;11.424;2023-12-28T11:29:22;0.20;;;0.20;;
12275;SDS011;6200;48.144;11.424;2023-12-28T11:31:52;0.20;;;0.20;;
12275;SDS011;6200;48.144;11.424;2023-12-28T11:34:29;0.20;;;0.20;;
12275;SDS011;6200;48.144;11.424;2023-12-28T11:37:03;0.30;;;0.30;;
12275;SDS011;6200;48.144;11.424;2023-12-28T11:39:37;0.20;;;0.20;;
12275;SDS011;6200;48.144;11.424;2023-12-28T11:42:04;0.20;;;0.20;;
12275;SDS011;6200;48.144;11.424;2023-12-28T11:44:31;0.20;;;0.20;;
12275;SDS011;6200;48.144;11.424;2023-12-28T11:47:15;0.30;;;0.30;;
12275;SDS011;6200;48.144;11.424;2023-12-28T11:49:41;0.20;;;0.20;;
12275;SDS011;6200;48.144;11.424;2023-12-28T11:52:07;0.20;;;0.20;;
12275;SDS011;6200;48.144;11.424;2023-12-28T11:54:36;0.30;;;0.30;;
12275;SDS011;6200;48.144;11.424;2023-12-28T11:57:01;0.27;;;0.27;;
12275;SDS011;6200;48.144;11.424;2023-12-28T11:59:27;0.20;;;0.20;;
12275;SDS011;6200;48.144;11.424;2023-12-28T12:01:53;0.20;;;0.20;;
12275;SDS011;6200;48.144;11.424;2023-12-28T12:04:19;0.20;;;0.20;;
12275;SDS011;6200;48.144;11.424;2023-12-28T12:06:45;0.20;;;0.20;;
12275;SDS011;6200;48.144;11.424;2023-12-28T12:09:12;0.30;;;0.30;;
12275;SDS011;6200;48.144;11.424;2023-12-28T12:11:38;0.20;;;0.20;;
12275;SDS011;6200;48.144;11.424;2023-12-28T12:14:07;0.20;;;0.20;;
12275;SDS011;6200;48.144;11.424;2023-12-28T12:16:34;0.30;;;0.30;;
12275;SDS011;6200;48.144;11.424;2023-12-28T12:19:01;0.20;;;0.20;;
12275;SDS011;6200;48.144;11.424;2023-12-28T12:21:26;0.20;;;0.20;;
12275;SDS011;6200;48.144;11.424;2023-12-28T12:23:52;0.30;;;0.30;;
12275;SDS011;6200;48.144;11.424;2023-12-28T12:26:19;0.20;;;0.20;;
12275;SDS011;6200;48.144;11.424;2023-12-28T12:28:46;0.20;;;0.20;;
12275;SDS011;6200;48.144;11.424;2023-12-28T12:31:12;0.20;;;0.20;;
12275;SDS011;6200;48.144;11.424;2023-12-28T12:33:37;0.20;;;0.20;;
12275;SDS011;6200;48.144;11.424;2023-12-28T12:36:05;0.20;;;0.20;;
12275;SDS011;6200;48.144;11.424;2023-12-28T12:38:31;0.23;;;0.23;;
12275;SDS011;6200;48.144;11.424;2023-12-28T12:40:57;0.20;;;0.20;;
12275;SDS011;6200;48.144;11.424;2023-12-28T12:43:23;0.20;;;0.20;;
12275;SDS011;6200;48.144;11.424;2023-12-28T12:45:50;0.20;;;0.20;;
12275;SDS011;6200;48.144;11.424;2023-12-28T12:48:16;0.20;;;0.20;;
12275;SDS011;6200;48.144;11.424;2023-12-28T12:50:41;0.30;;;0.30;;
12275;SDS011;6200;48.144;11.424;2023-12-28T12:53:08;0.20;;;0.20;;
12275;SDS011;6200;48.144;11.424;2023-12-28T12:55:35;0.20;;;0.20;;
12275;SDS011;6200;48.144;11.424;2023-12-28T12:58:02;0.20;;;0.20;;
12275;SDS011;6200;48.144;11.424;2023-12-28T13:00:27;0.20;;;0.20;;
12275;SDS011;6200;48.144;11.424;2023-12-28T13:02:53;0.23;;;0.23;;
12275;SDS011;6200;48.144;11.424;2023-12-28T13:05:20;0.20;;;0.20;;
12275;SDS011;6200;48.144;11.424;2023-12-28T13:07:46;0.30;;;0.30;;
12275;SDS011;6200;48.144;11.424;2023-12-28T13:10:11;0.20;;;0.20;;
12275;SDS011;6200;48.144;11.424;2023-12-28T13:12:37;0.20;;;0.20;;
12275;SDS011;6200;48.144;11.424;2023-12-28T13:15:02;0.20;;;0.20;;
12275;SDS011;6200;48.144;11.424;2023-12-28T13:17:28;0.20;;;0.20;;
12275;SDS011;6200;48.144;11.424;2023-12-28T13:19:54;0.20;;;0.20;;
12275;SDS011;6200;48.144;11.424;2023-12-28T13:22:19;0.20;;;0.20;;
12275;SDS011;6200;48.144;11.424;2023-12-28T13:24:45;0.20;;;0.20;;
12275;SDS011;6200;48.144;11.424;2023-12-28T13:27:10;0.20;;;0.20;;
12275;SDS011;6200;48.144;11.424;2023-12-28T13:29:36;0.20;;;0.20;;
12275;SDS011;6200;48.144;11.424;2023-12-28T13:32:02;0.30;;;0.30;;
12275;SDS011;6200;48.144;11.424;2023-12-28T13:34:28;0.20;;;0.20;;
12275;SDS011;6200;48.144;11.424;2023-12-28T13:36:54;0.20;;;0.20;;
12275;SDS011;6200;48.144;11.424;2023-12-28T13:39:19;0.20;;;0.20;;
12275;SDS011;6200;48.144;11.424;2023-12-28T13:41:45;0.20;;;0.20;;
12275;SDS011;6200;48.144;11.424;2023-12-28T13:44:10;0.30;;;0.30;;
12275;SDS011;6200;48.144;11.424;2023-12-28T13:46:37;0.30;;;0.30;;
12275;SDS011;6200;48.144;11.424;2023-12-28T13:49:05;0.30;;;0.30;;
12275;SDS011;6200;48.144;11.424;2023-12-28T13:51:32;0.30;;;0.30;;
12275;SDS011;6200;48.144;11.424;2023-12-28T13:53:58;0.20;;;0.20;;
12275;SDS011;6200;48.144;11.424;2023-12-28T13:56:24;0.20;;;0.20;;
12275;SDS011;6200;48.144;11.424;2023-12-28T13:58:49;0.20;;;0.20;;
12275;SDS011;6200;48.144;11.424;2023-12-28T14:01:15;0.20;;;0.20;;
12275;SDS011;6200;48.144;11.424;2023-12-28T14:03:40;0.20;;;0.20;;
12275;SDS011;6200;48.144;11.424;2023-12-28T14:06:06;0.20;;;0.20;;
12275;SDS011;6200;48.144;11.424;2023-12-28T14:08:32;0.20;;;0.20;;
12275;SDS011;6200;48.144;11.424;2023-12-28T14:10:57;0.30;;;0.30;;
12275;SDS011;6200;48.144;11.424;2023-12-28T14:13:23;0.20;;;0.20;;
12275;SDS011;6200;48.144;11.424;2023-12-28T14:15:48;0.20;;;0.20;;
12275;SDS011;6200;48.144;11.424;2023-12-28T14:18:14;0.20;;;0.20;;
12275;SDS011;6200;48.144;11.424;2023-12-28T14:20:40;0.30;;;0.30;;
12275;SDS011;6200;48.144;11.424;2023-12-28T14:23:05;0.20;;;0.20;;
12275;SDS011;6200;48.144;11.424;2023-12-28T14:25:31;0.20;;;0.20;;
12275;SDS011;6200;48.144;11.424;2023-12-28T14:27:57;0.20;;;0.20;;
12275;SDS011;6200;48.144;11.424;2023-12-28T14:30:23;0.20;;;0.20;;
12275;SDS011;6200;48.144;11.424;2023-12-28T14:32:49;0.27;;;0.27;;
12275;SDS011;6200;48.144;11.424;2023-12-28T14:35:15;0.20;;;0.20;;
12275;SDS011;6200;48.144;11.424;2023-12-28T14:37:46;0.20;;;0.20;;
12275;SDS011;6200;48.144;11.424;2023-12-28T14:40:11;0.30;;;0.30;;
12275;SDS011;6200;48.144;11.424;2023-12-28T14:42:37;0.20;;;0.20;;
12275;SDS011;6200;48.144;11.424;2023-12-28T14:45:04;0.30;;;0.30;;
12275;SDS011;6200;48.144;11.424;2023-12-28T14:47:30;0.20;;;0.20;;
12275;SDS011;6200;48.144;11.424;2023-12-28T14:49:55;0.23;;;0.23;;
12275;SDS011;6200;48.144;11.424;2023-12-28T14:52:22;0.20;;;0.20;;
12275;SDS011;6200;48.144;11.424;2023-12-28T14:54:48;0.20;;;0.20;;